Time,TemperatureF,DewpointF,PressureIn,WindDirection,WindDirectionDegrees,WindSpeedMPH,WindSpeedGustMPH,Humidity,HourlyPrecipIn,Conditions,Clouds,dailyrainin,SolarRadiationWatts/m^2,SoftwareType,DateUTC
2013-02-04 00:22:00,14.0,12.0,-100.00,NE,34,15.0,28.0,91,0.00,,,0.00,0.000000,,2013-02-04 05:22:00,
2013-02-04 00:33:00,14.0,12.0,-100.00,NE,34,15.0,28.0,91,0.00,,,0.00,0.000000,,2013-02-04 05:33:00,
2013-02-04 00:42:00,14.0,12.0,-100.00,NE,34,15.0,28.0,91,0.00,,,0.00,0.000000,,2013-02-04 05:42:00,
2013-02-04 00:52:00,14.0,12.0,-100.00,NE,34,15.0,28.0,91,0.00,,,0.00,0.000000,,2013-02-04 05:52:00,
2013-02-04 01:02:00,14.0,12.0,-100.00,NE,34,15.0,28.0,91,0.00,,,0.00,0.000000,,2013-02-04 06:02:00,
2013-02-04 01:21:00,14.0,12.0,-100.00,NNE,27,17.0,26.0,90,0.00,,,0.00,0.000000,,2013-02-04 06:21:00,
2013-02-04 01:32:00,14.0,12.0,-100.00,NNE,27,17.0,26.0,90,0.00,,,0.00,0.000000,,2013-02-04 06:32:00,
2013-02-04 01:42:00,14.0,12.0,-100.00,NNE,27,17.0,26.0,90,0.00,,,0.00,0.000000,,2013-02-04 06:42:00,
2013-02-04 01:52:00,14.0,12.0,-100.00,NNE,27,17.0,26.0,90,0.00,,,0.00,0.000000,,2013-02-04 06:52:00,
2013-02-04 02:02:00,14.0,12.0,-100.00,NNE,27,17.0,26.0,90,0.00,,,0.00,0.000000,,2013-02-04 07:02:00,
2013-02-04 02:32:00,14.0,11.0,-100.00,NNE,31,18.0,-999.0,89,0.00,,,0.00,,,2013-02-04 07:32:00,
2013-02-04 02:42:00,14.0,11.0,-100.00,NNE,31,18.0,-999.0,89,0.00,,,0.00,,,2013-02-04 07:42:00,
2013-02-04 02:52:00,14.0,11.0,-100.00,NNE,31,18.0,-999.0,89,0.00,,,0.00,,,2013-02-04 07:52:00,
2013-02-04 03:01:00,14.0,11.0,-100.00,NNE,31,18.0,-999.0,89,0.00,,,0.00,,,2013-02-04 08:01:00,
2013-02-04 03:32:00,15.0,9.0,-100.00,NE,55,18.0,26.0,77,0.00,,,0.00,0.000000,,2013-02-04 08:32:00,
2013-02-04 03:42:00,15.0,9.0,-100.00,NE,55,18.0,26.0,77,0.00,,,0.00,0.000000,,2013-02-04 08:42:00,
2013-02-04 03:52:00,15.0,9.0,-100.00,NE,55,18.0,26.0,77,0.00,,,0.00,0.000000,,2013-02-04 08:52:00,
2013-02-04 04:02:00,15.0,9.0,-100.00,NE,55,18.0,26.0,77,0.00,,,0.00,0.000000,,2013-02-04 09:02:00,
2013-02-04 04:32:00,19.0,6.0,-100.00,NE,40,17.0,26.0,56,0.00,,,0.00,0.000000,,2013-02-04 09:32:00,
2013-02-04 04:42:00,19.0,6.0,-100.00,NE,40,17.0,26.0,56,0.00,,,0.00,0.000000,,2013-02-04 09:42:00,
2013-02-04 04:52:00,19.0,6.0,-100.00,NE,40,17.0,26.0,56,0.00,,,0.00,0.000000,,2013-02-04 09:52:00,
2013-02-04 05:01:00,19.0,6.0,-100.00,NE,40,17.0,26.0,56,0.00,,,0.00,0.000000,,2013-02-04 10:01:00,
2013-02-04 05:32:00,22.0,11.0,-100.00,NE,49,15.0,23.0,62,0.00,,,0.00,0.000000,,2013-02-04 10:32:00,
2013-02-04 05:42:00,22.0,11.0,-100.00,NE,49,15.0,23.0,62,0.00,,,0.00,0.000000,,2013-02-04 10:42:00,
2013-02-04 05:52:00,22.0,11.0,-100.00,NE,49,15.0,23.0,62,0.00,,,0.00,0.000000,,2013-02-04 10:52:00,
2013-02-04 06:02:00,22.0,11.0,-100.00,NE,49,15.0,23.0,62,0.00,,,0.00,0.000000,,2013-02-04 11:02:00,
2013-02-04 06:33:00,23.0,13.0,-100.00,NNE,25,12.0,20.0,64,0.00,,,0.00,0.000000,,2013-02-04 11:33:00,
2013-02-04 06:42:00,23.0,13.0,-100.00,NNE,25,12.0,20.0,64,0.00,,,0.00,0.000000,,2013-02-04 11:42:00,
2013-02-04 06:52:00,23.0,13.0,-100.00,NNE,25,12.0,20.0,64,0.00,,,0.00,0.000000,,2013-02-04 11:52:00,
2013-02-04 07:02:00,23.0,13.0,-100.00,NNE,25,12.0,20.0,64,0.00,,,0.00,0.000000,,2013-02-04 12:02:00,
2013-02-04 07:03:00,24.0,13.0,-100.00,NE,37,13.0,21.0,63,0.00,,,0.00,0.000000,,2013-02-04 12:03:00,
2013-02-04 07:22:00,24.0,13.0,-100.00,NE,37,13.0,21.0,63,0.00,,,0.00,0.000000,,2013-02-04 12:22:00,
2013-02-04 07:33:00,24.0,13.0,-100.00,NE,37,13.0,21.0,63,0.00,,,0.00,0.000000,,2013-02-04 12:33:00,
2013-02-04 07:42:00,24.0,13.0,-100.00,NE,37,13.0,21.0,63,0.00,,,0.00,0.000000,,2013-02-04 12:42:00,
2013-02-04 07:53:00,24.0,13.0,-100.00,NE,37,13.0,21.0,63,0.00,,,0.00,0.000000,,2013-02-04 12:53:00,
2013-02-04 08:03:00,25.0,15.0,-100.00,NNE,28,13.0,20.0,64,0.00,,,0.00,4.000000,,2013-02-04 13:03:00,
2013-02-04 08:22:00,25.0,15.0,-100.00,NNE,28,13.0,20.0,64,0.00,,,0.00,4.000000,,2013-02-04 13:22:00,
2013-02-04 08:33:00,25.0,15.0,-100.00,NNE,28,13.0,20.0,64,0.00,,,0.00,4.000000,,2013-02-04 13:33:00,
2013-02-04 08:42:00,25.0,15.0,-100.00,NNE,28,13.0,20.0,64,0.00,,,0.00,4.000000,,2013-02-04 13:42:00,
2013-02-04 08:52:00,25.0,15.0,-100.00,NNE,28,13.0,20.0,64,0.00,,,0.00,4.000000,,2013-02-04 13:52:00,
2013-02-04 09:03:00,28.0,18.0,-100.00,NNE,14,9.0,18.0,65,0.00,,,0.00,44.000000,,2013-02-04 14:03:00,
2013-02-04 09:33:00,28.0,18.0,-100.00,NNE,14,9.0,18.0,65,0.00,,,0.00,44.000000,,2013-02-04 14:33:00,
2013-02-04 09:42:00,28.0,18.0,-100.00,NNE,14,9.0,18.0,65,0.00,,,0.00,44.000000,,2013-02-04 14:42:00,
2013-02-04 09:53:00,28.0,18.0,-100.00,NNE,14,9.0,18.0,65,0.00,,,0.00,44.000000,,2013-02-04 14:53:00,
2013-02-04 10:03:00,31.0,21.0,-100.00,North,359,5.0,17.0,66,0.00,,,0.00,78.000000,,2013-02-04 15:03:00,
2013-02-04 10:33:00,31.0,21.0,-100.00,North,359,5.0,17.0,66,0.00,,,0.00,78.000000,,2013-02-04 15:33:00,
2013-02-04 10:43:00,31.0,21.0,-100.00,North,359,5.0,17.0,66,0.00,,,0.00,78.000000,,2013-02-04 15:43:00,
2013-02-04 10:53:00,31.0,21.0,-100.00,North,359,5.0,17.0,66,0.00,,,0.00,78.000000,,2013-02-04 15:53:00,
2013-02-04 13:33:00,48.0,22.0,-100.00,NNW,342,4.0,13.0,36,-99.99,,,0.03,521.000000,,2013-02-04 18:33:00,
2013-02-04 14:23:00,44.0,22.0,-100.00,North,357,5.0,10.0,41,-99.99,,,0.05,485.000000,,2013-02-04 19:23:00,
2013-02-04 14:32:00,44.0,22.0,-100.00,North,357,5.0,10.0,41,-99.99,,,0.05,485.000000,,2013-02-04 19:32:00,
2013-02-04 14:42:00,44.0,22.0,-100.00,North,357,5.0,10.0,41,-99.99,,,0.05,485.000000,,2013-02-04 19:42:00,
2013-02-04 14:52:00,44.0,22.0,-100.00,North,357,5.0,10.0,41,-99.99,,,0.05,485.000000,,2013-02-04 19:52:00,
2013-02-04 15:02:00,44.0,22.0,-100.00,North,357,5.0,10.0,41,-99.99,,,0.05,485.000000,,2013-02-04 20:02:00,
2013-02-04 15:03:00,42.0,21.0,-100.00,NNW,328,4.0,9.0,42,0.01,,,0.06,322.000000,,2013-02-04 20:03:00,
2013-02-04 15:22:00,42.0,21.0,-100.00,NNW,328,4.0,9.0,42,0.01,,,0.06,322.000000,,2013-02-04 20:22:00,
2013-02-04 15:32:00,42.0,21.0,-100.00,NNW,328,4.0,9.0,42,0.01,,,0.06,322.000000,,2013-02-04 20:32:00,
2013-02-04 15:42:00,42.0,21.0,-100.00,NNW,328,4.0,9.0,42,0.01,,,0.06,322.000000,,2013-02-04 20:42:00,
2013-02-04 15:52:00,42.0,21.0,-100.00,NNW,328,4.0,9.0,42,0.01,,,0.06,322.000000,,2013-02-04 20:52:00,
2013-02-04 16:03:00,41.0,20.0,-100.00,SSW,213,3.0,10.0,43,0.00,,,0.06,235.000000,,2013-02-04 21:03:00,
2013-02-04 16:32:00,41.0,20.0,-100.00,SSW,213,3.0,10.0,43,0.00,,,0.06,235.000000,,2013-02-04 21:32:00,
2013-02-04 16:43:00,41.0,20.0,-100.00,SSW,213,3.0,10.0,43,0.00,,,0.06,235.000000,,2013-02-04 21:43:00,
2013-02-04 16:52:00,41.0,20.0,-100.00,SSW,213,3.0,10.0,43,0.00,,,0.06,235.000000,,2013-02-04 21:52:00,
2013-02-04 17:33:00,37.0,18.0,-100.00,West,267,5.0,10.0,45,0.00,,,0.06,179.000000,,2013-02-04 22:33:00,
2013-02-04 17:42:00,37.0,18.0,-100.00,West,267,5.0,10.0,45,0.00,,,0.06,179.000000,,2013-02-04 22:42:00,
2013-02-04 17:52:00,37.0,18.0,-100.00,West,267,5.0,10.0,45,0.00,,,0.06,179.000000,,2013-02-04 22:52:00,
2013-02-04 18:02:00,37.0,18.0,-100.00,West,267,5.0,10.0,45,0.00,,,0.06,179.000000,,2013-02-04 23:02:00,
2013-02-04 18:32:00,33.0,17.0,-100.00,NNE,29,5.0,11.0,51,0.00,,,0.06,30.000000,,2013-02-04 23:32:00,
2013-02-04 18:42:00,33.0,17.0,-100.00,NNE,29,5.0,11.0,51,0.00,,,0.06,30.000000,,2013-02-04 23:42:00,
2013-02-04 18:53:00,33.0,17.0,-100.00,NNE,29,5.0,11.0,51,0.00,,,0.06,30.000000,,2013-02-04 23:53:00,
2013-02-04 19:02:00,33.0,17.0,-100.00,NNE,29,5.0,11.0,51,0.00,,,0.06,30.000000,,2013-02-05 00:02:00,
2013-02-04 19:32:00,31.0,18.0,-100.00,NNW,348,7.0,15.0,58,0.00,,,0.06,0.000000,,2013-02-05 00:32:00,
2013-02-04 19:42:00,31.0,18.0,-100.00,NNW,348,7.0,15.0,58,0.00,,,0.06,0.000000,,2013-02-05 00:42:00,
2013-02-04 19:52:00,31.0,18.0,-100.00,NNW,348,7.0,15.0,58,0.00,,,0.06,0.000000,,2013-02-05 00:52:00,
2013-02-04 20:02:00,31.0,18.0,-100.00,NNW,348,7.0,15.0,58,0.00,,,0.06,0.000000,,2013-02-05 01:02:00,
2013-02-04 20:33:00,31.0,17.0,-100.00,North,0,4.0,11.0,55,0.00,,,0.06,0.000000,,2013-02-05 01:33:00,
2013-02-04 20:42:00,31.0,17.0,-100.00,North,0,4.0,11.0,55,0.00,,,0.06,0.000000,,2013-02-05 01:42:00,
2013-02-04 20:52:00,31.0,17.0,-100.00,North,0,4.0,11.0,55,0.00,,,0.06,0.000000,,2013-02-05 01:52:00,
2013-02-04 21:01:00,31.0,17.0,-100.00,North,0,4.0,11.0,55,0.00,,,0.06,0.000000,,2013-02-05 02:01:00,
2013-02-04 21:32:00,32.0,17.0,-100.00,NE,45,5.0,15.0,53,0.00,,,0.06,0.000000,,2013-02-05 02:32:00,
2013-02-04 21:42:00,32.0,17.0,-100.00,NE,45,5.0,15.0,53,0.00,,,0.06,0.000000,,2013-02-05 02:42:00,
2013-02-04 21:52:00,32.0,17.0,-100.00,NE,45,5.0,15.0,53,0.00,,,0.06,0.000000,,2013-02-05 02:52:00,
2013-02-04 22:02:00,32.0,17.0,-100.00,NE,45,5.0,15.0,53,0.00,,,0.06,0.000000,,2013-02-05 03:02:00,
2013-02-04 22:32:00,32.0,16.0,-100.00,NNW,340,6.0,17.0,51,0.00,,,0.06,0.000000,,2013-02-05 03:32:00,
2013-02-04 22:42:00,32.0,16.0,-100.00,NNW,340,6.0,17.0,51,0.00,,,0.06,0.000000,,2013-02-05 03:42:00,
2013-02-04 22:52:00,32.0,16.0,-100.00,NNW,340,6.0,17.0,51,0.00,,,0.06,0.000000,,2013-02-05 03:52:00,
2013-02-04 23:01:00,32.0,16.0,-100.00,NNW,340,6.0,17.0,51,0.00,,,0.06,0.000000,,2013-02-05 04:01:00,
2013-02-04 23:32:00,32.0,17.0,-100.00,NNE,13,6.0,17.0,54,0.00,,,0.06,0.000000,,2013-02-05 04:32:00,
2013-02-04 23:42:00,32.0,17.0,-100.00,NNE,13,6.0,17.0,54,0.00,,,0.06,0.000000,,2013-02-05 04:42:00,
2013-02-04 23:52:00,32.0,17.0,-100.00,NNE,13,6.0,17.0,54,0.00,,,0.06,0.000000,,2013-02-05 04:52:00,